Main page
METAR-TAF:

METAR-TAF

Airports :

Donegal, Ireland

Donegal Airport

latitude: 55-02-39N, longitude: 8-20-28W, elevation: 9 m

Current weather observation

The report was made 2 hours and 7 minutes ago, at 19:30 UTC
Wind 12 kt from the South
Temperature 7°C
Humidity 81%
Pressure 998 hPa
Visibility 10 km or more
Few clouds at a height of 3600 ft

METAR: EIDL 231930Z 19012KT 9999 FEW036 07/04 Q0998

Time: 21:37 (21:37 UTC)

Forecast

The report was made 4 hours and 37 minutes ago, at 17:00 UTC
Forecast valid from 23 at 18 UTC to 23 at 21 UTC
Wind 20 kt from the Southwest with gusts up to 32 kt
Visibility 10 km or more
Few clouds at a height of 1800 ft
Broken clouds at a height of 3000 ft
Becoming
from 23 at 18 UTC to 23 at 20 UTC
Wind 17 kt from the South with gusts up to 28 kt

TAF: EIDL 231700Z 2318/2321 22020G32KT 9999 FEW018 BKN030 BECMG 2318/2320 19017G28KT

Weather observations and forecasts of more than 4000 airports (METAR and TAF reports).

The available stations are represented by yellow and red dots on the map.

Hover mouse over dot to see the name of the station.

Then click to see weather observations and forecasts.

To change the map : click on the green buttons with a black cross to zoom in, on the green button with a dash to zoom out, or on the green arrows for adjacent maps.


METAR-TAF: